Time;durP1;ratioP1;P1;durP2;ratioP2;P2;SDS_P1;SDS_P2;PMS_P1;PMS_P2;Temp;Humidity;BMP_temperature;BMP_pressure;BME280_temperature;BME280_humidity;BME280_pressure;Samples;Min_cycle;Max_cycle;Signal;HPM_P1;HPM_P2
2021/10/08 00:00:35;;;;;;;5.33;2.38;;;;;;;8.34;36.71;102763.59;451823;114;922474;-80
2021/10/08 00:01:41;;;;;;;3.47;1.67;;;;;;;8.34;36.60;102767.17;451261;114;923799;-80
2021/10/08 00:02:44;;;;;;;7.73;2.14;;;;;;;8.34;36.67;102760.88;450589;114;923084;-79
2021/10/08 00:03:48;;;;;;;3.73;1.62;;;;;;;8.34;36.64;102763.59;449931;114;930494;-80
2021/10/08 00:04:51;;;;;;;2.14;1.56;;;;;;;8.33;36.63;102768.17;452207;114;930494;-81
2021/10/08 00:05:54;;;;;;;4.65;1.90;;;;;;;8.33;36.57;102764.59;451516;114;930280;-81
2021/10/08 00:06:59;;;;;;;2.84;1.64;;;;;;;8.31;36.51;102759.33;449159;115;922783;-80
2021/10/08 00:08:04;;;;;;;5.64;1.88;;;;;;;8.30;36.51;102764.91;449082;115;930370;-80
2021/10/08 00:09:07;;;;;;;3.77;1.72;;;;;;;8.28;36.56;102754.13;451471;114;922607;-79
2021/10/08 00:10:11;;;;;;;2.86;1.42;;;;;;;8.28;36.61;102761.42;452749;114;922651;-81
2021/10/08 00:11:15;;;;;;;3.81;2.31;;;;;;;8.27;36.66;102770.61;452799;114;930270;-79
2021/10/08 00:12:18;;;;;;;7.14;1.85;;;;;;;8.28;36.68;102766.86;451851;114;922497;-80
2021/10/08 00:13:21;;;;;;;8.55;2.36;;;;;;;8.28;36.72;102762.28;450882;114;922492;-80
2021/10/08 00:14:26;;;;;;;4.70;1.79;;;;;;;8.27;36.68;102771.44;451234;114;922565;-80
2021/10/08 00:15:30;;;;;;;3.27;1.69;;;;;;;8.28;36.68;102770.44;452477;114;923120;-80
2021/10/08 00:16:35;;;;;;;2.27;1.70;;;;;;;8.28;36.68;102773.16;449974;114;930323;-80
2021/10/08 00:17:39;;;;;;;3.97;1.86;;;;;;;8.28;36.69;102772.30;451347;115;922736;-80
2021/10/08 00:18:42;;;;;;;3.11;1.63;;;;;;;8.28;36.68;102765.00;450741;114;922740;-80
2021/10/08 00:19:46;;;;;;;4.59;1.79;;;;;;;8.28;36.69;102773.16;451083;114;922644;-81
2021/10/08 00:20:50;;;;;;;7.35;2.47;;;;;;;8.29;36.68;102776.73;452113;114;931181;-81
2021/10/08 00:21:53;;;;;;;5.03;1.72;;;;;;;8.28;36.59;102769.58;450223;114;923060;-80
2021/10/08 00:22:56;;;;;;;4.87;1.86;;;;;;;8.28;36.63;102772.30;451328;114;922628;-80
2021/10/08 00:24:00;;;;;;;5.29;1.64;;;;;;;8.26;36.65;102777.91;449875;114;922618;-80
2021/10/08 00:25:04;;;;;;;5.28;1.98;;;;;;;8.25;36.63;102773.47;451507;114;923127;-80
2021/10/08 00:26:08;;;;;;;3.91;1.60;;;;;;;8.24;36.61;102776.32;450581;114;922551;-80
2021/10/08 00:27:11;;;;;;;8.96;2.28;;;;;;;8.22;36.61;102775.59;451292;114;923726;-80
2021/10/08 00:28:15;;;;;;;3.09;1.69;;;;;;;8.20;36.63;102775.77;449257;114;930354;-81
2021/10/08 00:29:18;;;;;;;2.46;1.34;;;;;;;8.19;36.64;102774.05;451472;114;922919;-80
2021/10/08 00:30:24;;;;;;;3.09;1.55;;;;;;;8.18;36.67;102780.48;450625;114;930422;-79
2021/10/08 00:31:27;;;;;;;3.21;1.68;;;;;;;8.17;36.71;102783.33;451326;114;922471;-80
2021/10/08 00:32:30;;;;;;;6.99;1.87;;;;;;;8.16;36.72;102785.19;450824;114;922657;-80
2021/10/08 00:33:34;;;;;;;6.17;1.64;;;;;;;8.16;36.73;102779.75;453444;114;923561;-81
2021/10/08 00:34:38;;;;;;;4.34;1.56;;;;;;;8.16;36.76;102787.08;452132;114;922539;-81
2021/10/08 00:35:42;;;;;;;4.22;1.69;;;;;;;8.15;36.84;102777.20;451636;114;930509;-81
2021/10/08 00:36:47;;;;;;;2.87;1.53;;;;;;;8.15;36.85;102788.08;450347;114;922765;-81
2021/10/08 00:37:52;;;;;;;3.18;1.47;;;;;;;8.15;36.87;102785.36;450891;114;922791;-80
2021/10/08 00:38:56;;;;;;;4.57;1.81;;;;;;;8.15;36.86;102786.22;452140;114;930534;-80
2021/10/08 00:40:00;;;;;;;2.76;1.52;;;;;;;8.16;36.86;102784.36;451287;114;930647;-80
2021/10/08 00:41:06;;;;;;;3.78;1.84;;;;;;;8.15;36.88;102788.94;450087;114;922610;-81
2021/10/08 00:42:09;;;;;;;4.43;1.78;;;;;;;8.16;36.89;102790.62;451994;114;930627;-80
2021/10/08 00:43:19;;;;;;;4.86;1.75;;;;;;;8.15;36.87;102783.50;450502;114;922481;-80
2021/10/08 00:44:22;;;;;;;4.27;1.89;;;;;;;8.16;36.90;102784.36;451035;114;930629;-80
2021/10/08 00:45:26;;;;;;;5.91;2.02;;;;;;;8.15;36.97;102788.08;450011;115;923135;-80
2021/10/08 00:46:30;;;;;;;2.39;1.75;;;;;;;8.15;36.95;102786.22;450902;114;930584;-81
2021/10/08 00:47:33;;;;;;;3.44;1.71;;;;;;;8.16;37.00;102789.80;451755;114;923443;-80
2021/10/08 00:48:37;;;;;;;3.03;1.62;;;;;;;8.16;37.02;102784.36;443370;116;923312;-80
2021/10/08 00:49:40;;;;;;;6.85;2.47;;;;;;;8.15;37.04;102791.66;443259;116;922657;-80
2021/10/08 00:50:47;;;;;;;4.09;1.50;;;;;;;8.15;37.02;102788.94;451352;114;930562;-79
2021/10/08 00:51:51;;;;;;;2.09;1.56;;;;;;;8.14;37.02;102787.22;450837;114;922687;-79
2021/10/08 00:52:54;;;;;;;2.94;1.48;;;;;;;8.14;37.01;102780.92;449915;114;922883;-79
2021/10/08 00:53:57;;;;;;;3.62;1.76;;;;;;;8.14;37.04;102778.20;453044;114;930283;-80
2021/10/08 00:55:01;;;;;;;6.43;2.05;;;;;;;8.14;37.11;102781.78;452385;114;922653;-80
2021/10/08 00:56:04;;;;;;;3.83;1.91;;;;;;;8.14;37.11;102783.64;451574;114;922552;-81
2021/10/08 00:57:08;;;;;;;5.83;2.02;;;;;;;8.14;37.13;102772.77;452225;114;924894;-80
2021/10/08 00:58:13;;;;;;;3.46;1.86;;;;;;;8.14;37.16;102775.48;451860;114;930772;-80
2021/10/08 00:59:17;;;;;;;3.79;2.08;;;;;;;8.15;37.18;102779.92;451578;114;923210;-80
2021/10/08 01:00:22;;;;;;;3.83;1.44;;;;;;;8.16;37.16;102784.36;452345;114;922634;-79
2021/10/08 01:01:26;;;;;;;4.72;1.74;;;;;;;8.15;37.19;102778.06;451068;114;923063;-78
2021/10/08 01:02:30;;;;;;;4.39;1.90;;;;;;;8.17;37.27;102783.33;450669;114;923114;-79
2021/10/08 01:03:34;;;;;;;3.28;1.81;;;;;;;8.16;37.24;102770.77;451435;114;930309;-79
2021/10/08 01:04:38;;;;;;;3.87;2.08;;;;;;;8.16;37.21;102776.20;451999;114;930616;-79
2021/10/08 01:05:42;;;;;;;3.76;2.12;;;;;;;8.16;37.23;102777.03;452004;114;922645;-79
2021/10/08 01:06:46;;;;;;;4.88;2.28;;;;;;;8.17;37.21;102777.90;451823;114;930599;-78
2021/10/08 01:07:49;;;;;;;4.52;1.89;;;;;;;8.16;37.23;102778.92;449866;115;930493;-79
2021/10/08 01:08:54;;;;;;;4.60;2.46;;;;;;;8.15;37.26;102783.50;452311;114;922730;-79
2021/10/08 01:09:58;;;;;;;6.63;2.07;;;;;;;8.16;37.25;102781.64;451028;114;923206;-80
2021/10/08 01:11:03;;;;;;;6.07;2.07;;;;;;;8.15;37.29;102782.64;441783;117;922584;-78
2021/10/08 01:12:08;;;;;;;2.87;2.14;;;;;;;8.15;37.33;102778.06;442877;116;922798;-78
2021/10/08 01:13:14;;;;;;;4.91;2.16;;;;;;;8.14;37.35;102781.78;443432;116;922742;-77
2021/10/08 01:14:18;;;;;;;3.76;2.44;;;;;;;8.14;37.30;102775.48;444220;116;922706;-79
2021/10/08 01:15:23;;;;;;;4.87;2.31;;;;;;;8.14;37.35;102778.20;452111;114;930599;-80
2021/10/08 01:16:30;;;;;;;5.29;2.04;;;;;;;8.13;37.37;102774.63;453051;114;922625;-77
2021/10/08 01:17:34;;;;;;;5.06;2.18;;;;;;;8.13;37.36;102782.78;447792;116;923582;-79
2021/10/08 01:18:38;;;;;;;5.57;1.99;;;;;;;8.13;37.34;102780.06;441875;117;930820;-79
2021/10/08 01:19:42;;;;;;;4.42;2.05;;;;;;;8.12;37.40;102781.05;443979;116;922871;-78
2021/10/08 01:20:46;;;;;;;4.94;2.12;;;;;;;8.12;37.44;102781.05;451582;114;922689;-79
2021/10/08 01:21:54;;;;;;;3.34;1.83;;;;;;;8.12;37.46;102782.91;451531;114;922627;-80
2021/10/08 01:22:59;;;;;;;5.14;2.28;;;;;;;8.11;37.51;102779.33;449496;116;923020;-79
2021/10/08 01:24:05;;;;;;;4.91;2.33;;;;;;;8.12;37.49;102782.91;451886;114;922656;-80
2021/10/08 01:25:08;;;;;;;4.04;1.99;;;;;;;8.11;37.50;102782.05;451779;114;923284;-78
2021/10/08 01:26:13;;;;;;;6.05;2.26;;;;;;;8.12;37.47;102786.48;450381;115;930597;-78
2021/10/08 01:27:17;;;;;;;5.26;2.26;;;;;;;8.13;37.46;102781.92;449435;116;923154;-80
2021/10/08 01:28:21;;;;;;;4.92;2.12;;;;;;;8.13;37.46;102787.35;443686;116;922629;-78
2021/10/08 01:29:24;;;;;;;3.19;2.27;;;;;;;8.12;37.46;102785.63;444024;116;926360;-79
2021/10/08 01:30:28;;;;;;;4.82;2.32;;;;;;;8.13;37.44;102784.63;451448;114;922819;-79
2021/10/08 01:31:31;;;;;;;4.37;2.66;;;;;;;8.12;37.44;102785.63;450144;116;930310;-79
2021/10/08 01:32:36;;;;;;;4.04;2.46;;;;;;;8.11;37.51;102787.48;451624;114;924710;-79
2021/10/08 01:33:40;;;;;;;6.28;2.45;;;;;;;8.11;37.51;102789.34;446474;116;923542;-79
2021/10/08 01:34:44;;;;;;;4.15;2.26;;;;;;;8.10;37.51;102787.66;438724;118;922929;-79
2021/10/08 01:35:47;;;;;;;6.13;2.55;;;;;;;8.09;37.45;102789.52;442917;116;922284;-79
2021/10/08 01:36:52;;;;;;;3.79;2.19;;;;;;;8.08;37.50;102785.08;452860;114;922967;-80
2021/10/08 01:37:56;;;;;;;5.72;2.19;;;;;;;8.08;37.50;102784.22;448148;116;922578;-79
2021/10/08 01:38:59;;;;;;;7.34;2.43;;;;;;;8.08;37.49;102790.51;448414;116;922733;-80
2021/10/08 01:40:04;;;;;;;5.75;2.48;;;;;;;8.08;37.55;102793.23;450394;115;930508;-79
2021/10/08 01:41:09;;;;;;;4.69;2.19;;;;;;;8.08;37.56;102784.22;451381;114;922663;-79
2021/10/08 01:42:13;;;;;;;4.47;2.48;;;;;;;8.08;37.58;102785.08;439642;117;922555;-79
2021/10/08 01:43:17;;;;;;;5.52;2.88;;;;;;;8.06;37.58;102791.64;434575;118;931130;-79
2021/10/08 01:44:22;;;;;;;4.54;2.62;;;;;;;8.06;37.64;102788.92;441622;116;930651;-79
2021/10/08 01:45:27;;;;;;;6.41;2.44;;;;;;;8.06;37.66;102788.92;437902;118;930574;-81
2021/10/08 01:46:31;;;;;;;3.91;2.63;;;;;;;8.05;37.67;102795.39;438205;118;923540;-80
2021/10/08 01:47:35;;;;;;;4.78;2.37;;;;;;;8.05;37.64;102796.22;433960;119;923771;-77
2021/10/08 01:48:39;;;;;;;6.31;3.16;;;;;;;8.04;37.64;102794.52;437985;118;922829;-78
2021/10/08 01:49:43;;;;;;;5.86;2.31;;;;;;;8.04;37.69;102791.81;444650;114;922735;-80
2021/10/08 01:50:47;;;;;;;6.08;2.66;;;;;;;8.05;37.67;102795.39;451243;114;922996;-81
2021/10/08 01:51:51;;;;;;;5.56;2.45;;;;;;;8.03;37.66;102791.95;449639;116;923043;-80
2021/10/08 01:52:55;;;;;;;5.29;2.25;;;;;;;8.03;37.71;102790.09;443116;116;930792;-78
2021/10/08 01:53:58;;;;;;;5.72;3.27;;;;;;;8.03;37.75;102797.38;442635;116;923293;-79
2021/10/08 01:55:02;;;;;;;5.67;2.12;;;;;;;8.02;37.76;102799.23;448318;116;930753;-79
2021/10/08 01:56:08;;;;;;;4.61;2.99;;;;;;;8.02;37.77;102795.66;439830;118;923018;-79
2021/10/08 01:57:13;;;;;;;3.47;2.35;;;;;;;8.02;37.79;102795.66;443672;116;923750;-78
2021/10/08 01:58:17;;;;;;;4.52;2.68;;;;;;;8.01;37.82;102791.22;450872;115;923224;-80
2021/10/08 01:59:21;;;;;;;3.26;2.10;;;;;;;8.01;37.84;102796.66;452106;114;922717;-79
2021/10/08 02:00:25;;;;;;;6.06;2.55;;;;;;;8.00;37.83;102795.79;451026;114;923073;-79
2021/10/08 02:01:31;;;;;;;6.51;5.12;;;;;;;8.00;37.85;102795.79;450497;114;930644;-78
2021/10/08 02:02:36;;;;;;;6.71;3.22;;;;;;;7.99;37.82;102788.67;453118;114;922669;-79
2021/10/08 02:03:40;;;;;;;5.51;3.14;;;;;;;7.98;37.90;102797.81;445405;116;922825;-79
2021/10/08 02:04:44;;;;;;;6.73;3.15;;;;;;;7.98;37.91;102791.52;446321;114;923071;-78
2021/10/08 02:05:47;;;;;;;9.61;4.76;;;;;;;7.95;37.89;102788.08;449957;114;922626;-79
2021/10/08 02:06:51;;;;;;;7.77;2.68;;;;;;;7.96;37.89;102791.66;451819;115;930601;-79
2021/10/08 02:07:55;;;;;;;3.84;2.26;;;;;;;7.95;37.92;102796.23;442229;117;923133;-78
2021/10/08 02:09:01;;;;;;;3.22;2.03;;;;;;;7.94;37.90;102808.09;443551;116;922640;-78
2021/10/08 02:10:08;;;;;;;4.92;2.37;;;;;;;7.93;37.88;102798.25;451262;115;922526;-79
2021/10/08 02:11:11;;;;;;;6.51;2.74;;;;;;;7.92;37.85;102796.53;451819;114;923052;-80
2021/10/08 02:12:15;;;;;;;3.96;2.33;;;;;;;7.92;37.87;102799.25;451134;114;922449;-82
2021/10/08 02:13:19;;;;;;;4.67;2.91;;;;;;;7.91;37.90;102796.66;444842;115;931622;-78
2021/10/08 02:14:22;;;;;;;4.39;2.36;;;;;;;7.90;37.91;102798.52;445927;115;930481;-78
2021/10/08 02:15:27;;;;;;;5.02;2.57;;;;;;;7.90;37.93;102803.95;451446;115;922746;-80
2021/10/08 02:16:33;;;;;;;6.20;3.11;;;;;;;7.89;38.02;102802.23;448895;116;923138;-78
2021/10/08 02:17:38;;;;;;;5.11;2.38;;;;;;;7.88;37.99;102800.52;450513;114;922925;-79
2021/10/08 02:18:42;;;;;;;4.98;2.39;;;;;;;7.89;38.00;102807.66;452221;114;922901;-80
2021/10/08 02:19:45;;;;;;;8.23;2.87;;;;;;;7.88;38.07;102808.66;450889;114;930592;-81
2021/10/08 02:20:49;;;;;;;4.49;2.52;;;;;;;7.89;38.13;102810.38;451496;114;923140;-77
2021/10/08 02:21:53;;;;;;;6.57;2.81;;;;;;;7.89;38.14;102806.80;452216;114;923737;-79
2021/10/08 02:22:57;;;;;;;5.26;2.32;;;;;;;7.89;38.11;102810.38;452133;114;923061;-78
2021/10/08 02:24:01;;;;;;;5.49;2.85;;;;;;;7.89;38.04;102804.95;451862;114;922986;-80
2021/10/08 02:25:05;;;;;;;5.27;2.93;;;;;;;7.89;38.03;102813.09;449237;115;923053;-79
2021/10/08 02:26:10;;;;;;;5.43;4.36;;;;;;;7.87;38.11;102804.25;452655;114;922764;-80
2021/10/08 02:27:13;;;;;;;9.37;2.74;;;;;;;7.88;38.16;102807.83;452334;114;922596;-80
2021/10/08 02:28:16;;;;;;;4.65;2.37;;;;;;;7.88;38.12;102805.94;450642;114;922731;-78
2021/10/08 02:29:20;;;;;;;4.51;2.27;;;;;;;7.88;38.28;102810.55;449830;116;923039;-78
2021/10/08 02:30:24;;;;;;;7.42;2.78;;;;;;;7.88;38.28;102810.55;451386;114;930554;-79
2021/10/08 02:31:28;;;;;;;6.90;2.48;;;;;;;7.88;38.12;102810.55;451200;114;930614;-77
2021/10/08 02:32:32;;;;;;;4.98;2.74;;;;;;;7.89;38.14;102814.95;449319;114;922773;-78
2021/10/08 02:33:37;;;;;;;6.98;2.61;;;;;;;7.87;38.13;102809.69;450605;115;929093;-78
2021/10/08 02:34:40;;;;;;;6.99;2.61;;;;;;;7.88;38.15;102807.83;451167;114;922812;-78
2021/10/08 02:35:44;;;;;;;3.82;2.40;;;;;;;7.88;38.17;102808.66;451449;114;922680;-82
2021/10/08 02:36:47;;;;;;;8.36;2.56;;;;;;;7.88;38.13;102813.27;449498;116;930507;-79
2021/10/08 02:37:51;;;;;;;9.83;2.51;;;;;;;7.87;38.05;102809.69;450198;114;923230;-81
2021/10/08 02:38:54;;;;;;;9.24;2.61;;;;;;;7.87;38.10;102806.97;450705;114;930474;-78
2021/10/08 02:39:58;;;;;;;8.08;2.74;;;;;;;7.85;38.13;102808.95;452220;114;931087;-77
2021/10/08 02:41:02;;;;;;;4.61;2.49;;;;;;;7.86;38.18;102817.97;449034;114;922646;-79
2021/10/08 02:42:06;;;;;;;5.15;2.75;;;;;;;7.85;38.20;102813.53;450626;114;930514;-80
2021/10/08 02:43:10;;;;;;;5.25;2.66;;;;;;;7.84;38.23;102817.24;451412;115;922901;-79
2021/10/08 02:44:14;;;;;;;7.73;2.72;;;;;;;7.84;38.27;102818.10;453815;114;930490;-79
2021/10/08 02:45:17;;;;;;;5.92;2.24;;;;;;;7.84;38.30;102809.95;449858;116;922956;-79
2021/10/08 02:46:21;;;;;;;6.03;2.26;;;;;;;7.84;38.29;102807.23;451706;114;930560;-79
2021/10/08 02:47:25;;;;;;;11.09;2.81;;;;;;;7.84;38.30;102812.67;451717;114;922551;-79
2021/10/08 02:48:28;;;;;;;4.76;3.12;;;;;;;7.85;38.32;102819.82;451772;114;930695;-80
2021/10/08 02:49:34;;;;;;;5.12;2.28;;;;;;;7.85;38.28;102818.96;441897;116;930655;-79
2021/10/08 02:50:39;;;;;;;3.58;2.22;;;;;;;7.84;38.20;102818.10;443626;114;922605;-80
2021/10/08 02:51:44;;;;;;;4.26;2.19;;;;;;;7.83;38.22;102818.23;451537;114;922626;-81
2021/10/08 02:52:48;;;;;;;7.13;2.66;;;;;;;7.81;38.29;102812.97;451313;114;923152;-79
2021/10/08 02:53:51;;;;;;;8.43;2.81;;;;;;;7.80;38.31;102813.97;449160;116;930533;-81
2021/10/08 02:54:54;;;;;;;6.78;2.59;;;;;;;7.80;38.32;102819.39;451801;114;922695;-80
2021/10/08 02:55:58;;;;;;;4.92;3.06;;;;;;;7.79;38.34;102819.53;449605;115;922891;-81
2021/10/08 02:57:02;;;;;;;4.47;2.26;;;;;;;7.77;38.34;102819.69;449596;114;923255;-80
2021/10/08 02:58:07;;;;;;;6.75;3.31;;;;;;;7.75;38.31;102818.97;448605;116;922952;-82
2021/10/08 02:59:11;;;;;;;5.86;2.68;;;;;;;7.72;38.38;102816.52;451793;114;923035;-80
2021/10/08 03:00:15;;;;;;;4.55;2.32;;;;;;;7.72;38.48;102816.52;450360;114;923179;-79
2021/10/08 03:01:20;;;;;;;6.86;2.71;;;;;;;7.72;38.53;102821.12;450693;114;922536;-81
2021/10/08 03:02:23;;;;;;;7.08;2.71;;;;;;;7.72;38.53;102821.12;451599;114;930553;-79
2021/10/08 03:03:27;;;;;;;7.92;2.76;;;;;;;7.71;38.50;102824.83;451618;114;922548;-80
2021/10/08 03:04:30;;;;;;;6.11;2.94;;;;;;;7.71;38.51;102827.55;451818;114;931263;-79
2021/10/08 03:05:33;;;;;;;7.37;3.27;;;;;;;7.69;38.46;102824.95;451396;114;923263;-79
2021/10/08 03:06:38;;;;;;;7.94;4.23;;;;;;;7.67;38.51;102818.80;453317;115;922885;-81
2021/10/08 03:07:42;;;;;;;6.02;2.90;;;;;;;7.66;38.56;102817.11;452822;114;922625;-78
2021/10/08 03:08:46;;;;;;;9.95;3.91;;;;;;;7.66;38.58;102819.83;450839;114;922879;-80
2021/10/08 03:09:49;;;;;;;8.18;3.47;;;;;;;7.66;38.63;102819.83;451455;114;922701;-80
2021/10/08 03:10:53;;;;;;;5.67;3.09;;;;;;;7.68;38.63;102825.95;447666;116;922666;-79
2021/10/08 03:11:57;;;;;;;8.54;3.53;;;;;;;7.68;38.65;102816.95;447442;116;922739;-79
2021/10/08 03:13:01;;;;;;;7.04;2.98;;;;;;;7.68;38.71;102819.66;451720;114;930714;-79
2021/10/08 03:14:05;;;;;;;8.30;3.04;;;;;;;7.68;38.70;102819.66;451071;114;922899;-79
2021/10/08 03:15:09;;;;;;;7.29;3.05;;;;;;;7.69;38.69;102821.38;450824;114;922582;-79
2021/10/08 03:16:15;;;;;;;6.06;2.62;;;;;;;7.68;38.71;102819.66;443148;116;923072;-81
2021/10/08 03:17:18;;;;;;;5.76;2.92;;;;;;;7.67;38.77;102823.37;444151;116;922720;-80
2021/10/08 03:18:22;;;;;;;10.46;3.06;;;;;;;7.68;38.79;102816.95;450545;114;922588;-80
2021/10/08 03:19:26;;;;;;;4.59;2.69;;;;;;;7.67;38.78;102826.09;452238;114;922481;-79
2021/10/08 03:20:32;;;;;;;4.98;2.67;;;;;;;7.68;38.80;102825.09;450539;115;926431;-79
2021/10/08 03:21:35;;;;;;;7.03;2.78;;;;;;;7.67;38.77;102824.23;443057;116;930943;-82
2021/10/08 03:22:40;;;;;;;5.79;2.56;;;;;;;7.68;38.81;102825.95;441671;118;922572;-77
2021/10/08 03:23:43;;;;;;;7.73;2.84;;;;;;;7.67;38.83;102826.09;450534;114;923146;-80
2021/10/08 03:24:47;;;;;;;6.28;2.48;;;;;;;7.67;38.83;102826.09;451508;114;922608;-79
2021/10/08 03:25:50;;;;;;;7.84;2.11;;;;;;;7.67;38.81;102829.66;451340;114;923073;-84
2021/10/08 03:26:54;;;;;;;5.08;2.83;;;;;;;7.66;38.81;102830.69;450318;116;922522;-81
2021/10/08 03:27:57;;;;;;;5.35;2.66;;;;;;;7.66;38.75;102829.83;452762;114;922551;-81
2021/10/08 03:29:04;;;;;;;8.11;3.06;;;;;;;7.64;38.83;102827.24;451656;115;930721;-80
2021/10/08 03:30:12;;;;;;;4.18;2.53;;;;;;;7.63;38.92;102833.66;450515;114;923198;-80
2021/10/08 03:31:16;;;;;;;4.42;2.85;;;;;;;7.63;38.99;102833.66;449131;115;922498;-79
2021/10/08 03:32:19;;;;;;;7.59;3.45;;;;;;;7.63;38.98;102830.09;452637;114;922617;-80
2021/10/08 03:33:23;;;;;;;8.16;3.31;;;;;;;7.63;38.99;102833.66;453116;114;922902;-79
2021/10/08 03:34:26;;;;;;;7.97;3.55;;;;;;;7.62;38.88;102831.95;452547;113;930546;-80
2021/10/08 03:35:30;;;;;;;7.51;2.81;;;;;;;7.63;39.04;102827.38;452436;114;922711;-80
2021/10/08 03:37:18;;;;;;;7.02;3.06;;;;;;;7.62;39.08;102834.66;452425;113;930649;-80
2021/10/08 03:38:08;;;;;;;6.23;2.87;;;;;;;7.63;39.08;102844.53;440667;113;922830;-80
2021/10/08 03:38:47;;;;;;;10.22;3.18;;;;;;;7.62;39.13;102836.52;445158;115;922807;-79
2021/10/08 03:39:51;;;;;;;4.58;2.88;;;;;;;7.62;39.18;102831.95;446231;116;922934;-79
2021/10/08 03:41:12;;;;;;;6.10;3.26;;;;;;;7.61;39.19;102830.22;445906;115;922992;-77
2021/10/08 03:42:18;;;;;;;6.49;2.98;;;;;;;7.64;39.16;102832.67;450591;113;930485;-79
2021/10/08 03:43:20;;;;;;;4.81;2.66;;;;;;;7.64;39.21;102835.39;450615;115;922933;-80
2021/10/08 03:44:24;;;;;;;4.21;3.11;;;;;;;7.63;39.26;102836.37;450981;113;922722;-79
2021/10/08 03:45:32;;;;;;;8.54;3.26;;;;;;;7.64;39.31;102829.09;452451;113;922984;-82
2021/10/08 03:46:42;;;;;;;4.77;3.02;;;;;;;7.64;39.26;102831.81;451048;114;922785;-79
2021/10/08 03:50:13;;;;;;;5.81;2.90;;;;;;;7.63;39.37;102844.53;445606;116;922990;-80
2021/10/08 03:51:16;;;;;;;6.26;2.88;;;;;;;7.64;39.40;102845.39;445941;116;922608;-80
2021/10/08 03:52:21;;;;;;;5.89;2.81;;;;;;;7.62;39.43;102848.23;452455;114;923425;-79
2021/10/08 03:53:24;;;;;;;6.37;2.82;;;;;;;7.64;39.45;102851.68;454333;114;930416;-78
2021/10/08 03:54:27;;;;;;;6.80;2.41;;;;;;;7.64;39.42;102853.53;452539;113;923006;-79
2021/10/08 03:55:31;;;;;;;5.16;2.27;;;;;;;7.63;39.41;102849.95;451357;114;930527;-79
2021/10/08 03:56:36;;;;;;;4.82;2.34;;;;;;;7.62;39.44;102850.95;449193;115;923226;-80
2021/10/08 03:57:39;;;;;;;8.02;2.88;;;;;;;7.64;39.51;102850.81;449616;115;930601;-80
2021/10/08 03:58:45;;;;;;;8.42;3.00;;;;;;;7.64;39.54;102853.53;450852;114;923233;-80
2021/10/08 03:59:49;;;;;;;4.30;2.78;;;;;;;7.65;39.54;102853.40;453259;113;922765;-79
2021/10/08 04:00:53;;;;;;;3.95;2.67;;;;;;;7.66;39.58;102857.84;452794;113;923057;-80
2021/10/08 04:01:58;;;;;;;5.63;2.91;;;;;;;7.66;39.57;102855.12;452859;113;922929;-79
2021/10/08 04:03:02;;;;;;;4.88;2.77;;;;;;;7.68;39.57;102854.96;451817;113;923004;-79
2021/10/08 04:04:08;;;;;;;6.72;3.28;;;;;;;7.67;39.59;102858.67;452460;113;923395;-78
2021/10/08 04:05:11;;;;;;;9.61;3.48;;;;;;;7.68;39.63;102861.25;452726;114;923103;-81
2021/10/08 04:06:17;;;;;;;6.19;2.67;;;;;;;7.69;39.68;102865.69;451867;113;922735;-78
2021/10/08 04:07:21;;;;;;;7.50;3.35;;;;;;;7.70;39.68;102864.70;452850;114;922796;-78
2021/10/08 04:08:25;;;;;;;11.98;3.24;;;;;;;7.71;39.69;102866.42;452593;113;923033;-79
2021/10/08 04:09:29;;;;;;;5.20;3.03;;;;;;;7.72;39.71;102859.96;452058;113;931084;-80
2021/10/08 04:10:34;;;;;;;10.99;3.25;;;;;;;7.73;39.69;102864.41;452458;113;922666;-80
2021/10/08 04:11:37;;;;;;;9.79;3.34;;;;;;;7.74;39.67;102862.55;452090;113;922456;-81
2021/10/08 04:12:41;;;;;;;8.74;4.83;;;;;;;7.75;39.67;102873.28;453315;113;930778;-82
2021/10/08 04:13:44;;;;;;;9.38;3.79;;;;;;;7.76;39.65;102864.14;453886;113;930902;-84
2021/10/08 04:14:48;;;;;;;10.16;3.54;;;;;;;7.76;39.66;102869.57;454822;113;930505;-81
2021/10/08 04:15:51;;;;;;;7.12;4.07;;;;;;;7.76;39.68;102869.57;452996;114;922607;-82
2021/10/08 04:16:55;;;;;;;6.33;2.88;;;;;;;7.77;39.66;102868.58;445947;116;930691;-83
2021/10/08 04:17:59;;;;;;;5.32;3.05;;;;;;;7.78;39.65;102872.12;448294;115;923046;-83
2021/10/08 04:19:04;;;;;;;6.78;3.13;;;;;;;7.78;39.67;102870.27;454523;113;922575;-82
2021/10/08 04:20:09;;;;;;;5.39;3.24;;;;;;;7.80;39.73;102878.28;453767;113;923083;-81
2021/10/08 04:21:13;;;;;;;7.13;2.89;;;;;;;7.81;39.74;102877.29;446816;115;922653;-83
2021/10/08 04:22:17;;;;;;;8.56;3.38;;;;;;;7.83;39.78;102881.56;447266;116;922550;-82
2021/10/08 04:23:21;;;;;;;5.78;3.47;;;;;;;7.84;39.79;102882.42;454128;114;930723;-82
2021/10/08 04:24:25;;;;;;;9.62;4.10;;;;;;;7.86;39.78;102891.30;454076;113;930599;-84
2021/10/08 04:25:29;;;;;;;6.61;2.94;;;;;;;7.86;39.71;102881.30;454220;114;922776;-83
2021/10/08 04:26:34;;;;;;;9.16;3.45;;;;;;;7.88;39.73;102878.45;452648;114;923238;-82
2021/10/08 04:27:37;;;;;;;9.57;3.29;;;;;;;7.88;39.75;102882.00;452040;113;922561;-82
2021/10/08 04:28:41;;;;;;;6.61;3.12;;;;;;;7.90;39.74;102882.72;452014;113;923649;-83
2021/10/08 04:29:45;;;;;;;7.43;3.46;;;;;;;7.91;39.75;102883.59;451269;114;922492;-85
2021/10/08 04:30:51;;;;;;;5.34;3.49;;;;;;;7.92;39.71;102883.45;446912;115;930683;-85
2021/10/08 04:31:54;;;;;;;5.67;3.58;;;;;;;7.93;39.70;102887.03;445216;115;923249;-87
2021/10/08 04:32:58;;;;;;;7.03;3.87;;;;;;;7.94;39.69;102889.58;452359;114;923105;-86
2021/10/08 04:34:01;;;;;;;7.07;3.04;;;;;;;7.95;39.70;102890.45;452764;113;930543;-84
2021/10/08 04:35:07;;;;;;;7.02;2.99;;;;;;;7.98;39.68;102890.18;452400;114;922517;-87
2021/10/08 04:36:11;;;;;;;7.08;3.56;;;;;;;7.98;39.68;102890.18;450531;115;922879;-88
2021/10/08 04:37:14;;;;;;;12.05;5.14;;;;;;;8.01;39.67;102891.73;453805;113;922638;-82
2021/10/08 04:38:18;;;;;;;6.66;3.60;;;;;;;8.02;39.69;102891.60;453638;113;930586;-83
2021/10/08 04:39:22;;;;;;;9.88;4.87;;;;;;;8.04;39.64;102896.91;453142;114;922560;-78
2021/10/08 04:40:27;;;;;;;11.42;4.20;;;;;;;8.04;39.54;102896.91;455716;113;922559;-81
2021/10/08 04:41:32;;;;;;;12.67;3.77;;;;;;;8.04;39.53;102892.33;454943;114;922745;-82
2021/10/08 04:42:36;;;;;;;8.03;3.62;;;;;;;8.06;39.55;102892.16;455733;114;922651;-80
2021/10/08 04:43:39;;;;;;;6.51;3.86;;;;;;;8.07;39.53;102897.47;453583;114;923078;-80
2021/10/08 04:44:45;;;;;;;8.13;3.26;;;;;;;8.07;39.47;102897.47;447819;115;930796;-82
2021/10/08 04:45:49;;;;;;;6.39;3.85;;;;;;;8.09;39.46;102900.05;451034;114;931121;-83
2021/10/08 04:46:55;;;;;;;7.57;3.70;;;;;;;8.10;39.46;102893.63;457328;113;922631;-82
2021/10/08 04:47:58;;;;;;;10.25;4.06;;;;;;;8.10;39.46;102894.48;451847;114;923019;-83
2021/10/08 04:49:02;;;;;;;8.14;3.85;;;;;;;8.11;39.38;102898.03;451510;113;922672;-83
2021/10/08 04:50:08;;;;;;;9.17;3.57;;;;;;;8.10;39.39;102899.05;451492;114;922655;-81
2021/10/08 04:51:13;;;;;;;8.63;4.81;;;;;;;8.10;39.44;102889.05;452018;114;923057;-84
2021/10/08 04:52:17;;;;;;;6.44;3.97;;;;;;;8.12;39.45;102902.47;451201;114;923027;-80
2021/10/08 04:53:23;;;;;;;8.49;3.98;;;;;;;8.13;39.44;102898.76;450755;114;930591;-83
2021/10/08 04:54:29;;;;;;;10.69;3.71;;;;;;;8.14;39.40;102897.77;451672;113;922717;-84
2021/10/08 04:55:32;;;;;;;12.79;4.67;;;;;;;8.15;39.42;102902.20;453429;115;923415;-84
2021/10/08 04:56:36;;;;;;;13.46;4.37;;;;;;;8.16;39.45;102903.92;452172;113;930574;-81
2021/10/08 04:57:40;;;;;;;11.15;4.26;;;;;;;8.19;39.43;102906.34;452106;113;922728;-80
2021/10/08 04:58:44;;;;;;;11.10;3.76;;;;;;;8.18;39.39;102905.48;451955;113;922615;-81
2021/10/08 04:59:47;;;;;;;8.01;3.27;;;;;;;8.20;39.37;102898.05;452172;113;930547;-80
2021/10/08 05:00:52;;;;;;;9.88;3.69;;;;;;;8.21;39.42;102904.35;452818;113;923059;-82